sensor_id;sensor_type;location;lat;lon;timestamp;pressure;altitude;pressure_sealevel;temperature;humidity
21290;BME280;10804;48.988;2.408;2022-07-29T00:01:00;100842.59;;;24.23;48.36
21290;BME280;10804;48.988;2.408;2022-07-29T00:03:27;100832.19;;;24.20;48.18
21290;BME280;10804;48.988;2.408;2022-07-29T00:05:55;100835.81;;;24.19;48.38
21290;BME280;10804;48.988;2.408;2022-07-29T00:08:22;100838.72;;;24.16;48.30
21290;BME280;10804;48.988;2.408;2022-07-29T00:10:51;100832.69;;;24.14;48.21
21290;BME280;10804;48.988;2.408;2022-07-29T00:13:18;100827.56;;;24.11;48.31
21290;BME280;10804;48.988;2.408;2022-07-29T00:15:45;100827.72;;;24.10;48.18
21290;BME280;10804;48.988;2.408;2022-07-29T00:18:13;100817.28;;;24.07;48.25
21290;BME280;10804;48.988;2.408;2022-07-29T00:20:40;100812.09;;;24.05;48.38
21290;BME280;10804;48.988;2.408;2022-07-29T00:23:08;100812.31;;;24.02;48.48
21290;BME280;10804;48.988;2.408;2022-07-29T00:25:35;100809.81;;;24.01;48.22
21290;BME280;10804;48.988;2.408;2022-07-29T00:28:04;100811.72;;;23.99;48.54
21290;BME280;10804;48.988;2.408;2022-07-29T00:30:31;100809.19;;;23.97;48.42
21290;BME280;10804;48.988;2.408;2022-07-29T00:32:59;100803.25;;;23.94;48.45
21290;BME280;10804;48.988;2.408;2022-07-29T00:35:26;100793.56;;;23.93;48.25
21290;BME280;10804;48.988;2.408;2022-07-29T00:38:11;100809.69;;;23.91;48.47
21290;BME280;10804;48.988;2.408;2022-07-29T00:40:39;100802.78;;;23.89;48.51
21290;BME280;10804;48.988;2.408;2022-07-29T00:43:08;100801.91;;;23.88;48.63
21290;BME280;10804;48.988;2.408;2022-07-29T00:45:36;100801.19;;;23.86;48.36
21290;BME280;10804;48.988;2.408;2022-07-29T00:48:04;100790.75;;;23.83;48.32
21290;BME280;10804;48.988;2.408;2022-07-29T00:50:34;100794.41;;;23.82;48.21
21290;BME280;10804;48.988;2.408;2022-07-29T00:53:03;100789.28;;;23.79;48.26
21290;BME280;10804;48.988;2.408;2022-07-29T00:55:30;100791.22;;;23.77;48.57
21290;BME280;10804;48.988;2.408;2022-07-29T00:57:59;100793.19;;;23.75;48.41
21290;BME280;10804;48.988;2.408;2022-07-29T01:00:29;100793.19;;;23.75;48.27
21290;BME280;10804;48.988;2.408;2022-07-29T01:02:57;100791.72;;;23.71;48.25
21290;BME280;10804;48.988;2.408;2022-07-29T01:05:27;100787.47;;;23.69;48.53
21290;BME280;10804;48.988;2.408;2022-07-29T01:07:56;100793.06;;;23.66;48.47
21290;BME280;10804;48.988;2.408;2022-07-29T01:10:24;100792.19;;;23.65;48.41
21290;BME280;10804;48.988;2.408;2022-07-29T01:12:54;100786.13;;;23.63;48.54
21290;BME280;10804;48.988;2.408;2022-07-29T01:15:22;100784.44;;;23.62;48.35
21290;BME280;10804;48.988;2.408;2022-07-29T01:17:55;100786.41;;;23.60;48.67
21290;BME280;10804;48.988;2.408;2022-07-29T01:20:31;100787.38;;;23.59;48.53
21290;BME280;10804;48.988;2.408;2022-07-29T01:23:14;100779.75;;;23.55;48.68
21290;BME280;10804;48.988;2.408;2022-07-29T01:26:09;100787.72;;;23.55;48.60
21290;BME280;10804;48.988;2.408;2022-07-29T01:29:06;100791.59;;;23.51;48.46
21290;BME280;10804;48.988;2.408;2022-07-29T01:31:42;100790.72;;;23.50;48.45
21290;BME280;10804;48.988;2.408;2022-07-29T01:34:17;100797.00;;;23.49;48.54
21290;BME280;10804;48.988;2.408;2022-07-29T01:36:50;100798.97;;;23.47;48.48
21290;BME280;10804;48.988;2.408;2022-07-29T01:39:23;100796.53;;;23.44;48.40
21290;BME280;10804;48.988;2.408;2022-07-29T01:41:57;100793.13;;;23.42;48.49
21290;BME280;10804;48.988;2.408;2022-07-29T01:44:31;100787.94;;;23.41;48.60
21290;BME280;10804;48.988;2.408;2022-07-29T01:47:03;100796.03;;;23.39;48.52
21290;BME280;10804;48.988;2.408;2022-07-29T01:49:36;100802.44;;;23.37;48.81
21290;BME280;10804;48.988;2.408;2022-07-29T01:52:07;100799.88;;;23.35;48.57
21290;BME280;10804;48.988;2.408;2022-07-29T01:54:39;100795.69;;;23.33;48.51
21290;BME280;10804;48.988;2.408;2022-07-29T01:57:11;100801.84;;;23.33;48.58
21290;BME280;10804;48.988;2.408;2022-07-29T01:59:43;100798.44;;;23.31;48.47
21290;BME280;10804;48.988;2.408;2022-07-29T02:02:14;100797.84;;;23.28;48.90
21290;BME280;10804;48.988;2.408;2022-07-29T02:04:43;100797.84;;;23.28;48.83
21290;BME280;10804;48.988;2.408;2022-07-29T02:07:17;100789.00;;;23.27;48.49
21290;BME280;10804;48.988;2.408;2022-07-29T02:09:47;100797.22;;;23.24;48.57
21290;BME280;10804;48.988;2.408;2022-07-29T02:12:17;100792.88;;;23.23;48.70
21290;BME280;10804;48.988;2.408;2022-07-29T02:14:48;100794.81;;;23.21;48.89
21290;BME280;10804;48.988;2.408;2022-07-29T02:17:22;100798.41;;;23.20;48.66
21290;BME280;10804;48.988;2.408;2022-07-29T02:19:51;100796.97;;;23.16;48.76
21290;BME280;10804;48.988;2.408;2022-07-29T02:22:21;100805.16;;;23.13;48.78
21290;BME280;10804;48.988;2.408;2022-07-29T02:24:50;100796.41;;;23.11;48.67
21290;BME280;10804;48.988;2.408;2022-07-29T02:27:20;100802.72;;;23.10;48.79
21290;BME280;10804;48.988;2.408;2022-07-29T02:29:51;100810.81;;;23.09;48.70
21290;BME280;10804;48.988;2.408;2022-07-29T02:32:21;100803.94;;;23.06;48.73
21290;BME280;10804;48.988;2.408;2022-07-29T02:34:50;100811.91;;;23.06;48.63
21290;BME280;10804;48.988;2.408;2022-07-29T02:37:19;100812.00;;;23.05;48.66
21290;BME280;10804;48.988;2.408;2022-07-29T02:39:48;100819.28;;;23.03;48.67
21290;BME280;10804;48.988;2.408;2022-07-29T02:42:21;100809.69;;;23.00;48.65
21290;BME280;10804;48.988;2.408;2022-07-29T02:44:51;100817.69;;;23.00;49.01
21290;BME280;10804;48.988;2.408;2022-07-29T02:47:21;100813.34;;;22.99;48.79
21290;BME280;10804;48.988;2.408;2022-07-29T02:49:54;100818.88;;;22.96;48.67
21290;BME280;10804;48.988;2.408;2022-07-29T02:52:26;100821.66;;;22.95;48.92
21290;BME280;10804;48.988;2.408;2022-07-29T02:54:56;100817.41;;;22.92;48.91
21290;BME280;10804;48.988;2.408;2022-07-29T02:57:31;100826.38;;;22.91;49.09
21290;BME280;10804;48.988;2.408;2022-07-29T03:00:05;100821.16;;;22.90;48.69
21290;BME280;10804;48.988;2.408;2022-07-29T03:02:35;100821.25;;;22.88;48.91
21290;BME280;10804;48.988;2.408;2022-07-29T03:05:05;100817.00;;;22.86;48.98
21290;BME280;10804;48.988;2.408;2022-07-29T03:07:34;100814.47;;;22.84;48.84
21290;BME280;10804;48.988;2.408;2022-07-29T03:10:03;100818.09;;;22.83;48.87
21290;BME280;10804;48.988;2.408;2022-07-29T03:12:31;100820.88;;;22.82;48.71
21290;BME280;10804;48.988;2.408;2022-07-29T03:15:00;100821.22;;;22.77;48.78
21290;BME280;10804;48.988;2.408;2022-07-29T03:17:29;100825.56;;;22.78;49.06
21290;BME280;10804;48.988;2.408;2022-07-29T03:19:58;100828.47;;;22.75;48.76
21290;BME280;10804;48.988;2.408;2022-07-29T03:22:25;100827.59;;;22.75;48.92
21290;BME280;10804;48.988;2.408;2022-07-29T03:24:53;100825.19;;;22.72;48.79
21290;BME280;10804;48.988;2.408;2022-07-29T03:27:20;100817.31;;;22.70;48.75
21290;BME280;10804;48.988;2.408;2022-07-29T03:29:50;100825.41;;;22.69;48.84
21290;BME280;10804;48.988;2.408;2022-07-29T03:32:19;100819.25;;;22.68;48.97
21290;BME280;10804;48.988;2.408;2022-07-29T03:34:46;100821.16;;;22.66;48.88
21290;BME280;10804;48.988;2.408;2022-07-29T03:37:14;100819.69;;;22.62;49.17
21290;BME280;10804;48.988;2.408;2022-07-29T03:39:42;100830.31;;;22.62;49.13
21290;BME280;10804;48.988;2.408;2022-07-29T03:42:13;100831.50;;;22.58;49.16
21290;BME280;10804;48.988;2.408;2022-07-29T03:44:44;100828.97;;;22.57;49.11
21290;BME280;10804;48.988;2.408;2022-07-29T03:47:13;100831.63;;;22.57;48.99
21290;BME280;10804;48.988;2.408;2022-07-29T03:49:46;100834.38;;;22.55;49.18
21290;BME280;10804;48.988;2.408;2022-07-29T03:52:16;100835.34;;;22.54;49.04
21290;BME280;10804;48.988;2.408;2022-07-29T03:54:43;100834.84;;;22.49;48.93
21290;BME280;10804;48.988;2.408;2022-07-29T03:57:11;100833.88;;;22.50;48.92
21290;BME280;10804;48.988;2.408;2022-07-29T03:59:40;100831.34;;;22.49;49.09
21290;BME280;10804;48.988;2.408;2022-07-29T04:02:11;100841.34;;;22.45;49.14
21290;BME280;10804;48.988;2.408;2022-07-29T04:04:38;100832.41;;;22.46;49.22
21290;BME280;10804;48.988;2.408;2022-07-29T04:07:11;100838.69;;;22.45;49.17
21290;BME280;10804;48.988;2.408;2022-07-29T04:09:39;100840.59;;;22.43;48.92
21290;BME280;10804;48.988;2.408;2022-07-29T04:12:07;100833.56;;;22.42;49.28
21290;BME280;10804;48.988;2.408;2022-07-29T04:14:34;100839.94;;;22.40;49.16
21290;BME280;10804;48.988;2.408;2022-07-29T04:17:04;100832.09;;;22.38;49.08
21290;BME280;10804;48.988;2.408;2022-07-29T04:19:32;100834.84;;;22.37;49.24
21290;BME280;10804;48.988;2.408;2022-07-29T04:22:00;100837.50;;;22.37;49.16
21290;BME280;10804;48.988;2.408;2022-07-29T04:24:29;100837.59;;;22.35;49.17
21290;BME280;10804;48.988;2.408;2022-07-29T04:26:57;100844.75;;;22.35;49.00
21290;BME280;10804;48.988;2.408;2022-07-29T04:29:24;100845.72;;;22.34;49.13
21290;BME280;10804;48.988;2.408;2022-07-29T04:31:52;100837.09;;;22.30;49.23
21290;BME280;10804;48.988;2.408;2022-07-29T04:34:19;100853.16;;;22.29;49.07
21290;BME280;10804;48.988;2.408;2022-07-29T04:36:47;100861.22;;;22.27;49.16
21290;BME280;10804;48.988;2.408;2022-07-29T04:39:14;100866.69;;;22.26;49.31
21290;BME280;10804;48.988;2.408;2022-07-29T04:41:45;100858.81;;;22.24;49.12
21290;BME280;10804;48.988;2.408;2022-07-29T04:44:13;100861.56;;;22.23;49.15
21290;BME280;10804;48.988;2.408;2022-07-29T04:46:40;100865.28;;;22.20;49.25
21290;BME280;10804;48.988;2.408;2022-07-29T04:49:07;100856.38;;;22.21;49.10
21290;BME280;10804;48.988;2.408;2022-07-29T04:51:35;100861.69;;;22.21;49.08
21290;BME280;10804;48.988;2.408;2022-07-29T04:54:02;100862.75;;;22.19;49.25
21290;BME280;10804;48.988;2.408;2022-07-29T04:56:30;100863.81;;;22.16;49.32
21290;BME280;10804;48.988;2.408;2022-07-29T04:58:59;100862.94;;;22.16;49.23
21290;BME280;10804;48.988;2.408;2022-07-29T05:01:26;100865.75;;;22.14;49.19
21290;BME280;10804;48.988;2.408;2022-07-29T05:03:54;100864.00;;;22.13;49.27
21290;BME280;10804;48.988;2.408;2022-07-29T05:06:21;100875.59;;;22.12;49.41
21290;BME280;10804;48.988;2.408;2022-07-29T05:08:48;100871.25;;;22.11;49.25
21290;BME280;10804;48.988;2.408;2022-07-29T05:11:16;100872.13;;;22.12;49.15
21290;BME280;10804;48.988;2.408;2022-07-29T05:13:43;100876.56;;;22.11;49.25
21290;BME280;10804;48.988;2.408;2022-07-29T05:16:12;100872.22;;;22.10;49.50
21290;BME280;10804;48.988;2.408;2022-07-29T05:18:40;100870.75;;;22.06;49.17
21290;BME280;10804;48.988;2.408;2022-07-29T05:21:07;100870.53;;;22.09;49.36
21290;BME280;10804;48.988;2.408;2022-07-29T05:23:34;100871.47;;;22.08;49.53
21290;BME280;10804;48.988;2.408;2022-07-29T05:26:02;100874.03;;;22.10;49.26
21290;BME280;10804;48.988;2.408;2022-07-29T05:28:33;100878.50;;;22.09;49.37
21290;BME280;10804;48.988;2.408;2022-07-29T05:31:00;100870.63;;;22.08;49.34
21290;BME280;10804;48.988;2.408;2022-07-29T05:33:29;100868.72;;;22.10;49.41
21290;BME280;10804;48.988;2.408;2022-07-29T05:35:57;100878.38;;;22.11;49.48
21290;BME280;10804;48.988;2.408;2022-07-29T05:38:25;100879.44;;;22.08;49.56
21290;BME280;10804;48.988;2.408;2022-07-29T05:40:52;100877.53;;;22.10;49.40
21290;BME280;10804;48.988;2.408;2022-07-29T05:43:20;100880.09;;;22.12;49.54
21290;BME280;10804;48.988;2.408;2022-07-29T05:45:47;100878.25;;;22.12;49.41
21290;BME280;10804;48.988;2.408;2022-07-29T05:48:15;100887.19;;;22.11;49.22
21290;BME280;10804;48.988;2.408;2022-07-29T05:50:43;100886.13;;;22.14;49.33
21290;BME280;10804;48.988;2.408;2022-07-29T05:53:14;100887.00;;;22.14;49.30
21290;BME280;10804;48.988;2.408;2022-07-29T05:55:42;100888.78;;;22.14;49.56
21290;BME280;10804;48.988;2.408;2022-07-29T05:58:09;100887.81;;;22.15;49.58
21290;BME280;10804;48.988;2.408;2022-07-29T06:00:37;100885.91;;;22.17;49.44
21290;BME280;10804;48.988;2.408;2022-07-29T06:03:04;100889.31;;;22.19;49.36
21290;BME280;10804;48.988;2.408;2022-07-29T06:05:32;100888.34;;;22.20;49.38
21290;BME280;10804;48.988;2.408;2022-07-29T06:08:00;100898.03;;;22.21;49.43
21290;BME280;10804;48.988;2.408;2022-07-29T06:10:28;100901.41;;;22.23;49.47
21290;BME280;10804;48.988;2.408;2022-07-29T06:12:55;100893.34;;;22.24;49.40
21290;BME280;10804;48.988;2.408;2022-07-29T06:15:22;100894.09;;;22.26;49.29
21290;BME280;10804;48.988;2.408;2022-07-29T06:17:50;100896.75;;;22.26;49.31
21290;BME280;10804;48.988;2.408;2022-07-29T06:20:18;100903.75;;;22.27;49.26
21290;BME280;10804;48.988;2.408;2022-07-29T06:22:46;100903.75;;;22.27;49.49
21290;BME280;10804;48.988;2.408;2022-07-29T06:25:15;100907.16;;;22.29;49.36
21290;BME280;10804;48.988;2.408;2022-07-29T06:27:43;100903.56;;;22.30;49.32
21290;BME280;10804;48.988;2.408;2022-07-29T06:30:11;100903.41;;;22.32;49.17
21290;BME280;10804;48.988;2.408;2022-07-29T06:32:38;100900.66;;;22.33;49.26
21290;BME280;10804;48.988;2.408;2022-07-29T06:35:06;100893.56;;;22.34;49.35
21290;BME280;10804;48.988;2.408;2022-07-29T06:37:34;100908.41;;;22.36;49.23
21290;BME280;10804;48.988;2.408;2022-07-29T06:40:03;100910.00;;;22.39;49.23
21290;BME280;10804;48.988;2.408;2022-07-29T06:42:49;100909.91;;;22.40;49.13
21290;BME280;10804;48.988;2.408;2022-07-29T06:45:17;100916.84;;;22.43;49.25
21290;BME280;10804;48.988;2.408;2022-07-29T06:47:44;100916.75;;;22.44;49.12
21290;BME280;10804;48.988;2.408;2022-07-29T06:50:11;100917.34;;;22.48;49.05
21290;BME280;10804;48.988;2.408;2022-07-29T06:52:40;100910.00;;;22.51;49.15
21290;BME280;10804;48.988;2.408;2022-07-29T06:55:08;100918.75;;;22.53;49.04
21290;BME280;10804;48.988;2.408;2022-07-29T06:57:35;100920.19;;;22.57;48.93
21290;BME280;10804;48.988;2.408;2022-07-29T07:00:06;100927.97;;;22.60;49.16
21290;BME280;10804;48.988;2.408;2022-07-29T07:02:34;100928.72;;;22.62;49.21
21290;BME280;10804;48.988;2.408;2022-07-29T07:05:01;100924.84;;;22.66;48.98
21290;BME280;10804;48.988;2.408;2022-07-29T07:07:29;100914.75;;;22.71;48.80
21290;BME280;10804;48.988;2.408;2022-07-29T07:09:56;100919.00;;;22.74;49.06
21290;BME280;10804;48.988;2.408;2022-07-29T07:12:24;100918.75;;;22.77;49.10
21290;BME280;10804;48.988;2.408;2022-07-29T07:14:51;100922.03;;;22.80;48.94
21290;BME280;10804;48.988;2.408;2022-07-29T07:17:20;100920.88;;;22.84;49.02
21290;BME280;10804;48.988;2.408;2022-07-29T07:19:47;100922.34;;;22.88;48.98
21290;BME280;10804;48.988;2.408;2022-07-29T07:22:14;100923.81;;;22.92;48.63
21290;BME280;10804;48.988;2.408;2022-07-29T07:24:42;100929.78;;;22.96;48.64
21290;BME280;10804;48.988;2.408;2022-07-29T07:27:09;100925.06;;;22.99;48.82
21290;BME280;10804;48.988;2.408;2022-07-29T07:29:36;100930.88;;;23.04;48.75
21290;BME280;10804;48.988;2.408;2022-07-29T07:32:07;100926.31;;;23.06;48.68
21290;BME280;10804;48.988;2.408;2022-07-29T07:34:35;100928.75;;;23.09;48.89
21290;BME280;10804;48.988;2.408;2022-07-29T07:37:04;100934.59;;;23.14;48.61
21290;BME280;10804;48.988;2.408;2022-07-29T07:39:31;100933.94;;;23.23;48.67
21290;BME280;10804;48.988;2.408;2022-07-29T07:41:58;100937.31;;;23.25;48.50
21290;BME280;10804;48.988;2.408;2022-07-29T07:44:26;100931.66;;;23.30;48.50
21290;BME280;10804;48.988;2.408;2022-07-29T07:46:53;100932.50;;;23.30;48.64
21290;BME280;10804;48.988;2.408;2022-07-29T07:49:20;100936.63;;;23.34;48.88
21290;BME280;10804;48.988;2.408;2022-07-29T07:51:49;100934.25;;;23.42;48.41
21290;BME280;10804;48.988;2.408;2022-07-29T07:54:18;100931.47;;;23.44;48.57
21290;BME280;10804;48.988;2.408;2022-07-29T07:56:45;100935.25;;;23.52;48.81
21290;BME280;10804;48.988;2.408;2022-07-29T07:59:14;100935.03;;;23.55;48.85
21290;BME280;10804;48.988;2.408;2022-07-29T08:01:42;100921.94;;;23.52;48.63
21290;BME280;10804;48.988;2.408;2022-07-29T08:04:09;100933.69;;;23.61;48.59
21290;BME280;10804;48.988;2.408;2022-07-29T08:06:37;100930.22;;;23.60;48.53
21290;BME280;10804;48.988;2.408;2022-07-29T08:09:06;100932.88;;;23.71;48.47
21290;BME280;10804;48.988;2.408;2022-07-29T08:11:35;100933.59;;;23.73;48.38
21290;BME280;10804;48.988;2.408;2022-07-29T08:14:02;100932.66;;;23.74;48.53
21290;BME280;10804;48.988;2.408;2022-07-29T08:16:30;100935.09;;;23.77;48.86
21290;BME280;10804;48.988;2.408;2022-07-29T08:18:57;100930.13;;;23.84;48.51
21290;BME280;10804;48.988;2.408;2022-07-29T08:21:25;100936.84;;;23.89;48.64
21290;BME280;10804;48.988;2.408;2022-07-29T08:23:53;100932.84;;;23.95;48.60
21290;BME280;10804;48.988;2.408;2022-07-29T08:26:42;100936.75;;;24.02;48.44
21290;BME280;10804;48.988;2.408;2022-07-29T08:29:10;100938.81;;;23.98;48.66
21290;BME280;10804;48.988;2.408;2022-07-29T08:31:38;100937.34;;;24.05;48.50
21290;BME280;10804;48.988;2.408;2022-07-29T08:34:06;100929.97;;;24.09;48.81
21290;BME280;10804;48.988;2.408;2022-07-29T08:36:34;100932.38;;;24.12;48.80
21290;BME280;10804;48.988;2.408;2022-07-29T08:39:02;100925.00;;;24.15;48.85
21290;BME280;10804;48.988;2.408;2022-07-29T08:41:31;100930.06;;;24.18;49.00
21290;BME280;10804;48.988;2.408;2022-07-29T08:44:01;100930.69;;;24.22;49.04
21290;BME280;10804;48.988;2.408;2022-07-29T08:46:30;100927.66;;;24.26;48.93
21290;BME280;10804;48.988;2.408;2022-07-29T08:48:59;100936.16;;;24.31;48.98
21290;BME280;10804;48.988;2.408;2022-07-29T08:51:26;100937.63;;;24.35;49.00
21290;BME280;10804;48.988;2.408;2022-07-29T08:53:55;100934.44;;;24.41;49.06
21290;BME280;10804;48.988;2.408;2022-07-29T08:56:23;100933.25;;;24.45;49.01
21290;BME280;10804;48.988;2.408;2022-07-29T08:58:51;100934.69;;;24.49;49.13
21290;BME280;10804;48.988;2.408;2022-07-29T09:01:25;100936.16;;;24.53;49.23
21290;BME280;10804;48.988;2.408;2022-07-29T09:03:55;100930.69;;;24.55;49.09
21290;BME280;10804;48.988;2.408;2022-07-29T09:06:23;100930.38;;;24.59;49.17
21290;BME280;10804;48.988;2.408;2022-07-29T09:08:54;100928.91;;;24.66;49.19
21290;BME280;10804;48.988;2.408;2022-07-29T09:11:25;100933.97;;;24.69;49.12
21290;BME280;10804;48.988;2.408;2022-07-29T09:13:52;100932.78;;;24.73;49.16
21290;BME280;10804;48.988;2.408;2022-07-29T09:16:20;100932.25;;;24.79;49.28
21290;BME280;10804;48.988;2.408;2022-07-29T09:18:48;100934.53;;;24.83;49.20
21290;BME280;10804;48.988;2.408;2022-07-29T09:21:17;100922.78;;;24.86;49.13
21290;BME280;10804;48.988;2.408;2022-07-29T09:24:05;100932.09;;;24.91;49.30
21290;BME280;10804;48.988;2.408;2022-07-29T09:26:35;100926.41;;;24.96;49.25
21290;BME280;10804;48.988;2.408;2022-07-29T09:29:10;100922.50;;;25.00;49.31
21290;BME280;10804;48.988;2.408;2022-07-29T09:31:40;100925.78;;;25.03;49.40
21290;BME280;10804;48.988;2.408;2022-07-29T09:34:10;100929.75;;;25.09;49.32
21290;BME280;10804;48.988;2.408;2022-07-29T09:36:39;100924.88;;;25.14;49.25
21290;BME280;10804;48.988;2.408;2022-07-29T09:39:07;100934.31;;;25.18;49.29
21290;BME280;10804;48.988;2.408;2022-07-29T09:41:48;100928.53;;;25.24;49.24
21290;BME280;10804;48.988;2.408;2022-07-29T09:44:16;100928.28;;;25.27;49.41
21290;BME280;10804;48.988;2.408;2022-07-29T09:46:57;100929.72;;;25.31;49.35
21290;BME280;10804;48.988;2.408;2022-07-29T09:49:29;100931.16;;;25.35;49.37
21290;BME280;10804;48.988;2.408;2022-07-29T09:52:04;100929.91;;;25.39;49.32
21290;BME280;10804;48.988;2.408;2022-07-29T09:54:31;100932.34;;;25.42;49.22
21290;BME280;10804;48.988;2.408;2022-07-29T09:57:03;100933.50;;;25.49;49.28
21290;BME280;10804;48.988;2.408;2022-07-29T09:59:31;100935.94;;;25.52;49.28
21290;BME280;10804;48.988;2.408;2022-07-29T10:01:59;100934.84;;;25.54;49.34
21290;BME280;10804;48.988;2.408;2022-07-29T10:04:38;100934.44;;;25.59;49.32
21290;BME280;10804;48.988;2.408;2022-07-29T10:07:06;100936.72;;;25.63;49.30
21290;BME280;10804;48.988;2.408;2022-07-29T10:09:34;100941.78;;;25.66;49.29
21290;BME280;10804;48.988;2.408;2022-07-29T10:12:06;100941.56;;;25.69;49.04
21290;BME280;10804;48.988;2.408;2022-07-29T10:14:35;100946.50;;;25.74;49.42
21290;BME280;10804;48.988;2.408;2022-07-29T10:17:04;100940.88;;;25.77;49.13
21290;BME280;10804;48.988;2.408;2022-07-29T10:19:32;100934.31;;;25.81;49.06
21290;BME280;10804;48.988;2.408;2022-07-29T10:22:03;100936.59;;;25.85;49.19
21290;BME280;10804;48.988;2.408;2022-07-29T10:24:31;100935.53;;;25.88;49.12
21290;BME280;10804;48.988;2.408;2022-07-29T10:26:59;100936.13;;;25.91;49.15
21290;BME280;10804;48.988;2.408;2022-07-29T10:29:28;100930.50;;;25.94;49.12
21290;BME280;10804;48.988;2.408;2022-07-29T10:32:11;100932.88;;;25.97;49.12
21290;BME280;10804;48.988;2.408;2022-07-29T10:34:54;100943.91;;;26.04;49.42
21290;BME280;10804;48.988;2.408;2022-07-29T10:37:30;100940.97;;;26.07;49.26
21290;BME280;10804;48.988;2.408;2022-07-29T10:40:05;100930.00;;;26.10;49.41
21290;BME280;10804;48.988;2.408;2022-07-29T10:42:53;100929.63;;;26.14;49.36
21290;BME280;10804;48.988;2.408;2022-07-29T10:45:23;100932.84;;;26.18;49.03
21290;BME280;10804;48.988;2.408;2022-07-29T10:48:02;100936.84;;;26.23;49.24
21290;BME280;10804;48.988;2.408;2022-07-29T10:50:52;100942.50;;;26.30;49.05
21290;BME280;10804;48.988;2.408;2022-07-29T10:53:21;100940.53;;;26.32;49.07
21290;BME280;10804;48.988;2.408;2022-07-29T10:55:50;100927.88;;;26.34;48.95
21290;BME280;10804;48.988;2.408;2022-07-29T10:58:19;100943.66;;;26.37;48.88
21290;BME280;10804;48.988;2.408;2022-07-29T11:00:50;100937.19;;;26.39;49.01
21290;BME280;10804;48.988;2.408;2022-07-29T11:03:42;100934.94;;;26.44;49.00
21290;BME280;10804;48.988;2.408;2022-07-29T11:06:11;100935.41;;;26.49;48.69
21290;BME280;10804;48.988;2.408;2022-07-29T11:08:40;100938.69;;;26.53;49.01
21290;BME280;10804;48.988;2.408;2022-07-29T11:11:34;100934.91;;;26.55;48.87
21290;BME280;10804;48.988;2.408;2022-07-29T11:14:04;100931.94;;;26.58;48.68
21290;BME280;10804;48.988;2.408;2022-07-29T11:17:00;100941.41;;;26.62;48.78
21290;BME280;10804;48.988;2.408;2022-07-29T11:19:31;100940.88;;;26.68;48.89
21290;BME280;10804;48.988;2.408;2022-07-29T11:21:58;100936.09;;;26.72;48.80
21290;BME280;10804;48.988;2.408;2022-07-29T11:24:29;100928.63;;;26.75;48.50
21290;BME280;10804;48.988;2.408;2022-07-29T11:27:15;100932.84;;;26.78;48.58
21290;BME280;10804;48.988;2.408;2022-07-29T11:29:51;100921.88;;;26.81;48.63
21290;BME280;10804;48.988;2.408;2022-07-29T11:32:19;100935.97;;;26.83;48.33
21290;BME280;10804;48.988;2.408;2022-07-29T11:34:47;100941.31;;;26.83;48.34
21290;BME280;10804;48.988;2.408;2022-07-29T11:37:24;100938.91;;;26.89;48.55
21290;BME280;10804;48.988;2.408;2022-07-29T11:40:10;100943.16;;;26.92;48.37
21290;BME280;10804;48.988;2.408;2022-07-29T11:42:40;100939.50;;;26.93;48.32
21290;BME280;10804;48.988;2.408;2022-07-29T11:45:09;100939.94;;;26.98;48.21
21290;BME280;10804;48.988;2.408;2022-07-29T11:47:41;100934.28;;;27.01;48.49
21290;BME280;10804;48.988;2.408;2022-07-29T11:50:10;100930.38;;;27.05;48.08
21290;BME280;10804;48.988;2.408;2022-07-29T11:52:39;100927.56;;;27.06;47.96
21290;BME280;10804;48.988;2.408;2022-07-29T11:55:14;100920.22;;;27.08;48.03
21290;BME280;10804;48.988;2.408;2022-07-29T11:57:46;100928.13;;;27.10;48.39
21290;BME280;10804;48.988;2.408;2022-07-29T12:00:22;100919.81;;;27.13;48.22
21290;BME280;10804;48.988;2.408;2022-07-29T12:02:49;100927.44;;;27.17;48.31
21290;BME280;10804;48.988;2.408;2022-07-29T12:05:17;100927.03;;;27.22;48.10
21290;BME280;10804;48.988;2.408;2022-07-29T12:07:45;100926.72;;;27.25;48.17
21290;BME280;10804;48.988;2.408;2022-07-29T12:10:14;100930.97;;;27.27;48.06
21290;BME280;10804;48.988;2.408;2022-07-29T12:12:42;100929.84;;;27.30;48.11
21290;BME280;10804;48.988;2.408;2022-07-29T12:15:14;100933.22;;;27.32;48.18
21290;BME280;10804;48.988;2.408;2022-07-29T12:17:43;100932.97;;;27.35;48.14
21290;BME280;10804;48.988;2.408;2022-07-29T12:20:10;100936.22;;;27.38;48.19
21290;BME280;10804;48.988;2.408;2022-07-29T12:22:40;100939.72;;;27.39;47.91
21290;BME280;10804;48.988;2.408;2022-07-29T12:25:11;100932.41;;;27.41;47.80
21290;BME280;10804;48.988;2.408;2022-07-29T12:27:42;100926.75;;;27.44;48.10
21290;BME280;10804;48.988;2.408;2022-07-29T12:30:11;100933.50;;;27.48;48.16
21290;BME280;10804;48.988;2.408;2022-07-29T12:32:41;100922.66;;;27.49;47.53
21290;BME280;10804;48.988;2.408;2022-07-29T12:35:12;100914.47;;;27.51;47.90
21290;BME280;10804;48.988;2.408;2022-07-29T12:37:42;100915.16;;;27.53;47.74
21290;BME280;10804;48.988;2.408;2022-07-29T12:40:12;100914.91;;;27.56;47.85
21290;BME280;10804;48.988;2.408;2022-07-29T12:42:40;100907.56;;;27.58;47.55
21290;BME280;10804;48.988;2.408;2022-07-29T12:45:10;100916.28;;;27.60;47.70
21290;BME280;10804;48.988;2.408;2022-07-29T12:47:51;100917.97;;;27.61;47.38
21290;BME280;10804;48.988;2.408;2022-07-29T12:50:19;100916.72;;;27.65;47.78
21290;BME280;10804;48.988;2.408;2022-07-29T12:52:47;100907.56;;;27.67;47.62
21290;BME280;10804;48.988;2.408;2022-07-29T12:55:15;100916.97;;;27.71;47.69
21290;BME280;10804;48.988;2.408;2022-07-29T12:57:46;100915.16;;;27.72;47.71
21290;BME280;10804;48.988;2.408;2022-07-29T13:00:15;100932.66;;;27.76;47.22
21290;BME280;10804;48.988;2.408;2022-07-29T13:02:43;100919.97;;;27.78;47.33
21290;BME280;10804;48.988;2.408;2022-07-29T13:05:11;100926.75;;;27.82;47.71